sensor_id;sensor_type;location;lat;lon;timestamp;P1;durP1;ratioP1;P2;durP2;ratioP2
43070;SDS011;36278;47.952;21.714;2023-05-07T00:01:32;8.27;;;7.47;;
43070;SDS011;36278;47.952;21.714;2023-05-07T00:03:57;9.27;;;8.40;;
43070;SDS011;36278;47.952;21.714;2023-05-07T00:06:23;9.30;;;8.40;;
43070;SDS011;36278;47.952;21.714;2023-05-07T00:08:49;10.00;;;9.00;;
43070;SDS011;36278;47.952;21.714;2023-05-07T00:11:14;11.20;;;8.77;;
43070;SDS011;36278;47.952;21.714;2023-05-07T00:13:40;10.30;;;8.97;;
43070;SDS011;36278;47.952;21.714;2023-05-07T00:16:05;12.40;;;9.80;;
43070;SDS011;36278;47.952;21.714;2023-05-07T00:18:30;10.53;;;9.43;;
43070;SDS011;36278;47.952;21.714;2023-05-07T00:20:56;10.73;;;9.60;;
43070;SDS011;36278;47.952;21.714;2023-05-07T00:23:22;12.37;;;11.13;;
43070;SDS011;36278;47.952;21.714;2023-05-07T00:25:48;10.53;;;9.53;;
43070;SDS011;36278;47.952;21.714;2023-05-07T00:28:13;12.83;;;10.23;;
43070;SDS011;36278;47.952;21.714;2023-05-07T00:30:39;11.03;;;9.93;;
43070;SDS011;36278;47.952;21.714;2023-05-07T00:33:04;10.33;;;9.33;;
43070;SDS011;36278;47.952;21.714;2023-05-07T00:35:30;11.27;;;10.17;;
43070;SDS011;36278;47.952;21.714;2023-05-07T00:37:55;11.23;;;10.13;;
43070;SDS011;36278;47.952;21.714;2023-05-07T00:40:21;12.10;;;10.83;;
43070;SDS011;36278;47.952;21.714;2023-05-07T00:42:47;11.70;;;10.50;;
43070;SDS011;36278;47.952;21.714;2023-05-07T00:45:14;12.03;;;10.83;;
43070;SDS011;36278;47.952;21.714;2023-05-07T00:47:40;11.43;;;10.33;;
43070;SDS011;36278;47.952;21.714;2023-05-07T00:50:06;12.17;;;10.97;;
43070;SDS011;36278;47.952;21.714;2023-05-07T00:52:32;12.23;;;11.13;;
43070;SDS011;36278;47.952;21.714;2023-05-07T00:54:59;12.50;;;11.20;;
43070;SDS011;36278;47.952;21.714;2023-05-07T00:57:32;14.73;;;12.15;;
43070;SDS011;36278;47.952;21.714;2023-05-07T01:00:02;12.83;;;11.57;;
43070;SDS011;36278;47.952;21.714;2023-05-07T01:02:29;13.10;;;11.53;;
43070;SDS011;36278;47.952;21.714;2023-05-07T01:04:55;12.87;;;11.57;;
43070;SDS011;36278;47.952;21.714;2023-05-07T01:07:21;14.13;;;12.77;;
43070;SDS011;36278;47.952;21.714;2023-05-07T01:09:48;14.77;;;11.73;;
43070;SDS011;36278;47.952;21.714;2023-05-07T01:12:14;14.07;;;12.63;;
43070;SDS011;36278;47.952;21.714;2023-05-07T01:14:40;13.40;;;12.10;;
43070;SDS011;36278;47.952;21.714;2023-05-07T01:17:06;13.30;;;12.00;;
43070;SDS011;36278;47.952;21.714;2023-05-07T01:19:33;13.10;;;11.70;;
43070;SDS011;36278;47.952;21.714;2023-05-07T01:22:07;13.67;;;12.27;;
43070;SDS011;36278;47.952;21.714;2023-05-07T01:24:36;13.27;;;11.60;;
43070;SDS011;36278;47.952;21.714;2023-05-07T01:27:02;14.07;;;12.63;;
43070;SDS011;36278;47.952;21.714;2023-05-07T01:29:27;13.33;;;11.97;;
43070;SDS011;36278;47.952;21.714;2023-05-07T01:31:53;14.43;;;12.60;;
43070;SDS011;36278;47.952;21.714;2023-05-07T01:34:21;15.87;;;12.20;;
43070;SDS011;36278;47.952;21.714;2023-05-07T01:36:47;13.70;;;12.27;;
43070;SDS011;36278;47.952;21.714;2023-05-07T01:39:13;14.13;;;12.67;;
43070;SDS011;36278;47.952;21.714;2023-05-07T01:41:40;15.37;;;12.70;;
43070;SDS011;36278;47.952;21.714;2023-05-07T01:44:08;13.63;;;12.37;;
43070;SDS011;36278;47.952;21.714;2023-05-07T01:46:37;14.10;;;12.77;;
43070;SDS011;36278;47.952;21.714;2023-05-07T01:49:03;14.40;;;12.97;;
43070;SDS011;36278;47.952;21.714;2023-05-07T01:51:28;15.10;;;13.03;;
43070;SDS011;36278;47.952;21.714;2023-05-07T01:53:54;14.50;;;13.10;;
43070;SDS011;36278;47.952;21.714;2023-05-07T01:56:20;17.37;;;13.47;;
43070;SDS011;36278;47.952;21.714;2023-05-07T01:58:46;15.57;;;14.00;;
43070;SDS011;36278;47.952;21.714;2023-05-07T02:01:12;16.43;;;13.53;;
43070;SDS011;36278;47.952;21.714;2023-05-07T02:03:39;14.20;;;12.80;;
43070;SDS011;36278;47.952;21.714;2023-05-07T02:06:04;15.63;;;13.87;;
43070;SDS011;36278;47.952;21.714;2023-05-07T02:08:30;15.80;;;14.20;;
43070;SDS011;36278;47.952;21.714;2023-05-07T02:10:56;14.67;;;13.17;;
43070;SDS011;36278;47.952;21.714;2023-05-07T02:13:21;16.77;;;15.03;;
43070;SDS011;36278;47.952;21.714;2023-05-07T02:15:47;15.10;;;13.50;;
43070;SDS011;36278;47.952;21.714;2023-05-07T02:18:15;15.63;;;13.93;;
43070;SDS011;36278;47.952;21.714;2023-05-07T02:20:41;16.00;;;14.33;;
43070;SDS011;36278;47.952;21.714;2023-05-07T02:23:07;15.60;;;14.00;;
43070;SDS011;36278;47.952;21.714;2023-05-07T02:25:33;16.70;;;14.97;;
43070;SDS011;36278;47.952;21.714;2023-05-07T02:27:59;15.67;;;14.13;;
43070;SDS011;36278;47.952;21.714;2023-05-07T02:30:24;19.90;;;14.30;;
43070;SDS011;36278;47.952;21.714;2023-05-07T02:32:50;16.73;;;15.10;;
43070;SDS011;36278;47.952;21.714;2023-05-07T02:35:16;16.33;;;14.73;;
43070;SDS011;36278;47.952;21.714;2023-05-07T02:37:42;16.93;;;15.23;;
43070;SDS011;36278;47.952;21.714;2023-05-07T02:40:08;17.73;;;14.93;;
43070;SDS011;36278;47.952;21.714;2023-05-07T02:42:34;16.20;;;14.70;;
43070;SDS011;36278;47.952;21.714;2023-05-07T02:44:59;16.70;;;15.10;;
43070;SDS011;36278;47.952;21.714;2023-05-07T02:47:25;17.47;;;15.57;;
43070;SDS011;36278;47.952;21.714;2023-05-07T02:49:54;17.43;;;15.63;;
43070;SDS011;36278;47.952;21.714;2023-05-07T02:52:20;16.40;;;14.90;;
43070;SDS011;36278;47.952;21.714;2023-05-07T02:54:46;17.80;;;15.33;;
43070;SDS011;36278;47.952;21.714;2023-05-07T02:57:11;16.83;;;15.10;;
43070;SDS011;36278;47.952;21.714;2023-05-07T02:59:36;17.23;;;15.07;;
43070;SDS011;36278;47.952;21.714;2023-05-07T03:02:02;16.77;;;15.07;;
43070;SDS011;36278;47.952;21.714;2023-05-07T03:04:27;20.83;;;16.93;;
43070;SDS011;36278;47.952;21.714;2023-05-07T03:06:53;19.80;;;16.60;;
43070;SDS011;36278;47.952;21.714;2023-05-07T03:09:18;17.73;;;15.97;;
43070;SDS011;36278;47.952;21.714;2023-05-07T03:11:44;17.27;;;15.57;;
43070;SDS011;36278;47.952;21.714;2023-05-07T03:14:09;18.37;;;16.50;;
43070;SDS011;36278;47.952;21.714;2023-05-07T03:16:35;17.80;;;15.90;;
43070;SDS011;36278;47.952;21.714;2023-05-07T03:19:00;16.80;;;15.07;;
43070;SDS011;36278;47.952;21.714;2023-05-07T03:21:26;18.60;;;16.57;;
43070;SDS011;36278;47.952;21.714;2023-05-07T03:23:51;16.87;;;15.27;;
43070;SDS011;36278;47.952;21.714;2023-05-07T03:26:17;17.63;;;15.40;;
43070;SDS011;36278;47.952;21.714;2023-05-07T03:28:42;19.07;;;15.23;;
43070;SDS011;36278;47.952;21.714;2023-05-07T03:31:08;16.30;;;14.70;;
43070;SDS011;36278;47.952;21.714;2023-05-07T03:33:33;17.73;;;15.83;;
43070;SDS011;36278;47.952;21.714;2023-05-07T03:36:00;17.17;;;15.37;;
43070;SDS011;36278;47.952;21.714;2023-05-07T03:38:26;17.63;;;15.87;;
43070;SDS011;36278;47.952;21.714;2023-05-07T03:40:51;18.60;;;16.53;;
43070;SDS011;36278;47.952;21.714;2023-05-07T03:43:17;17.83;;;16.03;;
43070;SDS011;36278;47.952;21.714;2023-05-07T03:45:42;18.30;;;16.33;;
43070;SDS011;36278;47.952;21.714;2023-05-07T03:48:07;17.83;;;16.03;;
43070;SDS011;36278;47.952;21.714;2023-05-07T03:50:33;17.83;;;15.97;;
43070;SDS011;36278;47.952;21.714;2023-05-07T03:52:58;16.50;;;15.00;;
43070;SDS011;36278;47.952;21.714;2023-05-07T03:55:24;17.93;;;15.57;;
43070;SDS011;36278;47.952;21.714;2023-05-07T03:57:50;18.90;;;16.90;;
43070;SDS011;36278;47.952;21.714;2023-05-07T04:00:15;18.10;;;15.63;;
43070;SDS011;36278;47.952;21.714;2023-05-07T04:02:41;17.57;;;15.90;;
43070;SDS011;36278;47.952;21.714;2023-05-07T04:05:07;19.03;;;15.23;;
43070;SDS011;36278;47.952;21.714;2023-05-07T04:07:32;16.37;;;14.70;;
43070;SDS011;36278;47.952;21.714;2023-05-07T04:09:58;17.10;;;15.33;;
43070;SDS011;36278;47.952;21.714;2023-05-07T04:12:23;18.97;;;16.00;;
43070;SDS011;36278;47.952;21.714;2023-05-07T04:14:49;18.27;;;16.27;;
43070;SDS011;36278;47.952;21.714;2023-05-07T04:17:14;18.37;;;16.43;;
43070;SDS011;36278;47.952;21.714;2023-05-07T04:19:40;17.67;;;15.97;;
43070;SDS011;36278;47.952;21.714;2023-05-07T04:22:10;17.20;;;15.50;;
43070;SDS011;36278;47.952;21.714;2023-05-07T04:24:36;18.37;;;16.57;;
43070;SDS011;36278;47.952;21.714;2023-05-07T04:27:01;16.90;;;15.30;;
43070;SDS011;36278;47.952;21.714;2023-05-07T04:29:26;18.20;;;16.23;;
43070;SDS011;36278;47.952;21.714;2023-05-07T04:31:53;18.53;;;16.70;;
43070;SDS011;36278;47.952;21.714;2023-05-07T04:34:20;17.90;;;16.20;;
43070;SDS011;36278;47.952;21.714;2023-05-07T04:36:46;20.67;;;17.40;;
43070;SDS011;36278;47.952;21.714;2023-05-07T04:39:11;18.53;;;16.37;;
43070;SDS011;36278;47.952;21.714;2023-05-07T04:41:37;18.63;;;16.80;;
43070;SDS011;36278;47.952;21.714;2023-05-07T04:44:02;18.37;;;16.50;;
43070;SDS011;36278;47.952;21.714;2023-05-07T04:46:30;23.40;;;18.53;;
43070;SDS011;36278;47.952;21.714;2023-05-07T04:48:55;19.93;;;17.97;;
43070;SDS011;36278;47.952;21.714;2023-05-07T04:51:21;21.63;;;17.57;;
43070;SDS011;36278;47.952;21.714;2023-05-07T04:53:46;19.37;;;17.23;;
43070;SDS011;36278;47.952;21.714;2023-05-07T04:56:12;19.53;;;17.60;;
43070;SDS011;36278;47.952;21.714;2023-05-07T04:58:38;18.77;;;16.83;;
43070;SDS011;36278;47.952;21.714;2023-05-07T05:01:03;19.50;;;17.60;;
43070;SDS011;36278;47.952;21.714;2023-05-07T05:03:29;18.67;;;16.87;;
43070;SDS011;36278;47.952;21.714;2023-05-07T05:05:55;18.90;;;17.00;;
43070;SDS011;36278;47.952;21.714;2023-05-07T05:08:22;19.67;;;17.77;;
43070;SDS011;36278;47.952;21.714;2023-05-07T05:10:47;18.73;;;16.83;;
43070;SDS011;36278;47.952;21.714;2023-05-07T05:13:14;18.70;;;16.73;;
43070;SDS011;36278;47.952;21.714;2023-05-07T05:15:40;19.40;;;17.40;;
43070;SDS011;36278;47.952;21.714;2023-05-07T05:18:06;18.43;;;16.63;;
43070;SDS011;36278;47.952;21.714;2023-05-07T05:20:31;18.93;;;17.13;;
43070;SDS011;36278;47.952;21.714;2023-05-07T05:22:57;18.57;;;16.77;;
43070;SDS011;36278;47.952;21.714;2023-05-07T05:25:22;19.53;;;17.40;;
43070;SDS011;36278;47.952;21.714;2023-05-07T05:27:47;19.50;;;17.63;;
43070;SDS011;36278;47.952;21.714;2023-05-07T05:30:13;18.30;;;16.50;;
43070;SDS011;36278;47.952;21.714;2023-05-07T05:32:39;17.53;;;15.77;;
43070;SDS011;36278;47.952;21.714;2023-05-07T05:35:04;18.00;;;16.27;;
43070;SDS011;36278;47.952;21.714;2023-05-07T05:37:30;17.67;;;16.07;;
43070;SDS011;36278;47.952;21.714;2023-05-07T05:39:56;17.37;;;15.57;;
43070;SDS011;36278;47.952;21.714;2023-05-07T05:42:22;17.60;;;15.77;;
43070;SDS011;36278;47.952;21.714;2023-05-07T05:44:48;17.73;;;16.03;;
43070;SDS011;36278;47.952;21.714;2023-05-07T05:47:14;16.43;;;14.73;;
43070;SDS011;36278;47.952;21.714;2023-05-07T05:49:39;16.20;;;14.50;;
43070;SDS011;36278;47.952;21.714;2023-05-07T05:52:05;14.63;;;13.23;;
43070;SDS011;36278;47.952;21.714;2023-05-07T05:54:30;14.03;;;12.63;;
43070;SDS011;36278;47.952;21.714;2023-05-07T05:56:56;13.17;;;11.87;;
43070;SDS011;36278;47.952;21.714;2023-05-07T05:59:22;13.13;;;11.83;;
43070;SDS011;36278;47.952;21.714;2023-05-07T06:01:47;12.27;;;10.87;;
43070;SDS011;36278;47.952;21.714;2023-05-07T06:04:13;13.43;;;12.07;;
43070;SDS011;36278;47.952;21.714;2023-05-07T06:06:38;14.23;;;12.40;;
43070;SDS011;36278;47.952;21.714;2023-05-07T06:09:04;13.33;;;11.17;;
43070;SDS011;36278;47.952;21.714;2023-05-07T06:11:29;12.70;;;10.93;;
43070;SDS011;36278;47.952;21.714;2023-05-07T06:13:56;12.60;;;10.40;;
43070;SDS011;36278;47.952;21.714;2023-05-07T06:16:21;11.20;;;9.03;;
43070;SDS011;36278;47.952;21.714;2023-05-07T06:18:46;14.63;;;9.97;;
43070;SDS011;36278;47.952;21.714;2023-05-07T06:21:13;10.67;;;9.57;;
43070;SDS011;36278;47.952;21.714;2023-05-07T06:23:38;9.37;;;8.43;;
43070;SDS011;36278;47.952;21.714;2023-05-07T06:26:06;11.90;;;8.87;;
43070;SDS011;36278;47.952;21.714;2023-05-07T06:28:31;12.57;;;9.03;;
43070;SDS011;36278;47.952;21.714;2023-05-07T06:31:16;10.57;;;8.80;;
43070;SDS011;36278;47.952;21.714;2023-05-07T06:33:45;11.17;;;8.63;;
43070;SDS011;36278;47.952;21.714;2023-05-07T06:36:11;9.17;;;8.27;;
43070;SDS011;36278;47.952;21.714;2023-05-07T06:38:36;10.23;;;8.67;;
43070;SDS011;36278;47.952;21.714;2023-05-07T06:41:01;10.27;;;9.07;;
43070;SDS011;36278;47.952;21.714;2023-05-07T06:43:27;10.40;;;9.03;;
43070;SDS011;36278;47.952;21.714;2023-05-07T06:45:53;11.50;;;8.90;;
43070;SDS011;36278;47.952;21.714;2023-05-07T06:48:18;11.80;;;9.07;;
43070;SDS011;36278;47.952;21.714;2023-05-07T06:50:43;10.57;;;9.37;;
43070;SDS011;36278;47.952;21.714;2023-05-07T06:53:09;12.93;;;9.43;;
43070;SDS011;36278;47.952;21.714;2023-05-07T06:55:34;13.87;;;9.63;;
43070;SDS011;36278;47.952;21.714;2023-05-07T06:58:00;10.10;;;9.10;;
43070;SDS011;36278;47.952;21.714;2023-05-07T07:00:29;11.17;;;9.97;;
43070;SDS011;36278;47.952;21.714;2023-05-07T07:02:55;11.20;;;10.00;;
43070;SDS011;36278;47.952;21.714;2023-05-07T07:05:21;11.80;;;9.80;;
43070;SDS011;36278;47.952;21.714;2023-05-07T07:07:46;11.27;;;10.17;;
43070;SDS011;36278;47.952;21.714;2023-05-07T07:10:18;11.20;;;10.07;;
43070;SDS011;36278;47.952;21.714;2023-05-07T07:12:49;11.70;;;10.30;;
43070;SDS011;36278;47.952;21.714;2023-05-07T07:15:15;10.70;;;9.53;;
43070;SDS011;36278;47.952;21.714;2023-05-07T07:17:41;11.80;;;10.60;;
43070;SDS011;36278;47.952;21.714;2023-05-07T07:20:07;13.17;;;11.70;;
43070;SDS011;36278;47.952;21.714;2023-05-07T07:22:32;12.27;;;11.03;;
43070;SDS011;36278;47.952;21.714;2023-05-07T07:24:58;12.13;;;10.57;;
43070;SDS011;36278;47.952;21.714;2023-05-07T07:27:27;11.53;;;10.37;;
43070;SDS011;36278;47.952;21.714;2023-05-07T07:29:58;11.70;;;10.07;;
43070;SDS011;36278;47.952;21.714;2023-05-07T07:32:23;12.47;;;9.27;;
43070;SDS011;36278;47.952;21.714;2023-05-07T07:34:52;10.27;;;9.27;;
43070;SDS011;36278;47.952;21.714;2023-05-07T07:37:17;12.27;;;10.27;;
43070;SDS011;36278;47.952;21.714;2023-05-07T07:39:43;10.30;;;9.17;;
43070;SDS011;36278;47.952;21.714;2023-05-07T07:42:08;9.80;;;8.37;;
43070;SDS011;36278;47.952;21.714;2023-05-07T07:44:34;9.67;;;8.77;;
43070;SDS011;36278;47.952;21.714;2023-05-07T07:46:59;9.27;;;8.17;;
43070;SDS011;36278;47.952;21.714;2023-05-07T07:49:25;10.90;;;9.00;;
43070;SDS011;36278;47.952;21.714;2023-05-07T07:51:51;10.63;;;9.10;;
43070;SDS011;36278;47.952;21.714;2023-05-07T07:54:17;10.10;;;9.10;;
43070;SDS011;36278;47.952;21.714;2023-05-07T07:56:42;12.57;;;9.33;;
43070;SDS011;36278;47.952;21.714;2023-05-07T07:59:08;11.73;;;8.50;;
43070;SDS011;36278;47.952;21.714;2023-05-07T08:01:33;11.37;;;8.93;;
43070;SDS011;36278;47.952;21.714;2023-05-07T08:03:59;10.53;;;8.60;;
43070;SDS011;36278;47.952;21.714;2023-05-07T08:06:28;9.50;;;8.40;;
43070;SDS011;36278;47.952;21.714;2023-05-07T08:08:53;10.60;;;8.77;;
43070;SDS011;36278;47.952;21.714;2023-05-07T08:11:19;9.43;;;8.43;;
43070;SDS011;36278;47.952;21.714;2023-05-07T08:13:45;10.13;;;8.23;;
43070;SDS011;36278;47.952;21.714;2023-05-07T08:16:11;10.27;;;9.00;;
43070;SDS011;36278;47.952;21.714;2023-05-07T08:18:36;11.90;;;9.57;;
43070;SDS011;36278;47.952;21.714;2023-05-07T08:21:02;10.67;;;8.77;;
43070;SDS011;36278;47.952;21.714;2023-05-07T08:23:27;12.87;;;8.97;;
43070;SDS011;36278;47.952;21.714;2023-05-07T08:25:53;12.83;;;9.50;;
43070;SDS011;36278;47.952;21.714;2023-05-07T08:28:19;14.73;;;10.00;;
43070;SDS011;36278;47.952;21.714;2023-05-07T08:30:45;9.80;;;8.90;;
43070;SDS011;36278;47.952;21.714;2023-05-07T08:33:11;10.83;;;9.70;;
43070;SDS011;36278;47.952;21.714;2023-05-07T08:35:37;10.70;;;8.93;;
43070;SDS011;36278;47.952;21.714;2023-05-07T08:38:02;11.10;;;9.53;;
43070;SDS011;36278;47.952;21.714;2023-05-07T08:40:28;12.75;;;9.65;;
43070;SDS011;36278;47.952;21.714;2023-05-07T08:42:54;11.57;;;9.77;;
43070;SDS011;36278;47.952;21.714;2023-05-07T08:45:21;13.90;;;9.27;;
43070;SDS011;36278;47.952;21.714;2023-05-07T08:47:49;14.20;;;9.53;;
43070;SDS011;36278;47.952;21.714;2023-05-07T08:52:47;11.75;;;10.55;;
43070;SDS011;36278;47.952;21.714;2023-05-07T08:55:13;12.02;;;10.82;;
43070;SDS011;36278;47.952;21.714;2023-05-07T08:57:38;12.35;;;9.73;;
43070;SDS011;36278;47.952;21.714;2023-05-07T09:00:04;14.77;;;10.43;;
43070;SDS011;36278;47.952;21.714;2023-05-07T09:02:32;10.50;;;9.50;;
43070;SDS011;36278;47.952;21.714;2023-05-07T09:05:00;10.00;;;9.00;;
43070;SDS011;36278;47.952;21.714;2023-05-07T09:07:26;12.70;;;11.20;;
43070;SDS011;36278;47.952;21.714;2023-05-07T09:09:52;11.30;;;10.10;;
43070;SDS011;36278;47.952;21.714;2023-05-07T09:12:20;10.82;;;9.45;;
43070;SDS011;36278;47.952;21.714;2023-05-07T09:14:46;11.48;;;9.70;;
43070;SDS011;36278;47.952;21.714;2023-05-07T09:17:12;10.27;;;9.23;;
43070;SDS011;36278;47.952;21.714;2023-05-07T09:19:38;10.52;;;9.27;;
43070;SDS011;36278;47.952;21.714;2023-05-07T09:22:04;12.10;;;9.25;;
43070;SDS011;36278;47.952;21.714;2023-05-07T09:24:32;10.55;;;9.45;;
43070;SDS011;36278;47.952;21.714;2023-05-07T09:27:02;10.20;;;8.75;;
43070;SDS011;36278;47.952;21.714;2023-05-07T09:29:32;12.85;;;9.25;;
43070;SDS011;36278;47.952;21.714;2023-05-07T09:32:01;9.82;;;8.82;;
43070;SDS011;36278;47.952;21.714;2023-05-07T09:34:28;12.50;;;8.35;;
43070;SDS011;36278;47.952;21.714;2023-05-07T09:36:54;10.93;;;8.60;;
43070;SDS011;36278;47.952;21.714;2023-05-07T09:39:21;9.75;;;8.75;;
43070;SDS011;36278;47.952;21.714;2023-05-07T09:41:48;11.63;;;8.93;;
43070;SDS011;36278;47.952;21.714;2023-05-07T09:44:14;9.55;;;8.43;;
43070;SDS011;36278;47.952;21.714;2023-05-07T09:46:42;11.20;;;8.75;;
43070;SDS011;36278;47.952;21.714;2023-05-07T09:49:11;11.68;;;8.77;;
43070;SDS011;36278;47.952;21.714;2023-05-07T09:51:51;9.63;;;8.45;;
43070;SDS011;36278;47.952;21.714;2023-05-07T09:54:18;11.45;;;9.15;;
43070;SDS011;36278;47.952;21.714;2023-05-07T09:56:47;15.90;;;10.15;;
43070;SDS011;36278;47.952;21.714;2023-05-07T09:59:14;11.27;;;9.65;;
43070;SDS011;36278;47.952;21.714;2023-05-07T10:01:41;10.52;;;9.05;;
43070;SDS011;36278;47.952;21.714;2023-05-07T10:04:08;11.13;;;9.40;;
43070;SDS011;36278;47.952;21.714;2023-05-07T10:06:35;10.40;;;9.32;;
43070;SDS011;36278;47.952;21.714;2023-05-07T10:09:01;12.32;;;9.68;;
43070;SDS011;36278;47.952;21.714;2023-05-07T10:11:27;11.95;;;9.27;;
43070;SDS011;36278;47.952;21.714;2023-05-07T10:13:53;14.75;;;9.40;;
43070;SDS011;36278;47.952;21.714;2023-05-07T10:16:20;16.33;;;8.50;;
43070;SDS011;36278;47.952;21.714;2023-05-07T10:18:46;10.88;;;8.93;;
43070;SDS011;36278;47.952;21.714;2023-05-07T10:21:17;9.35;;;8.32;;
43070;SDS011;36278;47.952;21.714;2023-05-07T10:23:51;9.95;;;8.95;;
43070;SDS011;36278;47.952;21.714;2023-05-07T10:26:23;10.65;;;9.07;;
43070;SDS011;36278;47.952;21.714;2023-05-07T10:29:01;9.88;;;8.63;;
43070;SDS011;36278;47.952;21.714;2023-05-07T10:33:56;10.15;;;8.93;;
43070;SDS011;36278;47.952;21.714;2023-05-07T10:36:22;11.20;;;9.18;;
43070;SDS011;36278;47.952;21.714;2023-05-07T10:38:49;9.57;;;8.43;;
43070;SDS011;36278;47.952;21.714;2023-05-07T10:41:15;11.65;;;8.48;;
43070;SDS011;36278;47.952;21.714;2023-05-07T10:43:44;13.80;;;8.90;;
43070;SDS011;36278;47.952;21.714;2023-05-07T10:46:17;13.18;;;8.75;;
43070;SDS011;36278;47.952;21.714;2023-05-07T10:51:25;8.98;;;8.05;;
43070;SDS011;36278;47.952;21.714;2023-05-07T10:54:37;10.85;;;9.32;;
43070;SDS011;36278;47.952;21.714;2023-05-07T10:56:38;9.02;;;8.05;;
43070;SDS011;36278;47.952;21.714;2023-05-07T11:02:25;8.00;;;7.28;;
43070;SDS011;36278;47.952;21.714;2023-05-07T11:04:44;10.60;;;8.10;;
43070;SDS011;36278;47.952;21.714;2023-05-07T11:07:21;9.38;;;6.95;;
43070;SDS011;36278;47.952;21.714;2023-05-07T11:15:12;6.88;;;5.40;;
43070;SDS011;36278;47.952;21.714;2023-05-07T11:17:53;8.65;;;6.50;;
43070;SDS011;36278;47.952;21.714;2023-05-07T11:26:07;6.32;;;5.53;;
43070;SDS011;36278;47.952;21.714;2023-05-07T11:28:37;7.25;;;6.00;;
43070;SDS011;36278;47.952;21.714;2023-05-07T11:31:04;8.25;;;6.25;;
43070;SDS011;36278;47.952;21.714;2023-05-07T11:33:30;8.27;;;5.70;;
43070;SDS011;36278;47.952;21.714;2023-05-07T11:35:58;43.17;;;35.63;;
43070;SDS011;36278;47.952;21.714;2023-05-07T11:38:25;8.57;;;7.45;;
43070;SDS011;36278;47.952;21.714;2023-05-07T11:40:57;6.18;;;5.43;;
43070;SDS011;36278;47.952;21.714;2023-05-07T11:43:25;7.53;;;5.75;;
43070;SDS011;36278;47.952;21.714;2023-05-07T11:45:51;5.80;;;4.85;;
43070;SDS011;36278;47.952;21.714;2023-05-07T11:48:18;7.43;;;5.20;;
43070;SDS011;36278;47.952;21.714;2023-05-07T11:50:52;5.40;;;4.90;;
43070;SDS011;36278;47.952;21.714;2023-05-07T11:53:26;6.15;;;4.60;;
43070;SDS011;36278;47.952;21.714;2023-05-07T11:55:53;5.43;;;4.72;;
43070;SDS011;36278;47.952;21.714;2023-05-07T11:58:22;6.10;;;4.80;;
43070;SDS011;36278;47.952;21.714;2023-05-07T12:00:49;4.85;;;4.35;;
43070;SDS011;36278;47.952;21.714;2023-05-07T12:03:15;5.15;;;4.65;;
43070;SDS011;36278;47.952;21.714;2023-05-07T12:05:42;5.15;;;4.65;;
43070;SDS011;36278;47.952;21.714;2023-05-07T12:08:13;5.13;;;4.50;;
43070;SDS011;36278;47.952;21.714;2023-05-07T12:10:40;5.18;;;4.68;;
43070;SDS011;36278;47.952;21.714;2023-05-07T12:13:13;4.40;;;4.00;;
43070;SDS011;36278;47.952;21.714;2023-05-07T12:15:51;5.57;;;3.83;;
43070;SDS011;36278;47.952;21.714;2023-05-07T12:18:18;4.93;;;4.13;;
43070;SDS011;36278;47.952;21.714;2023-05-07T12:20:44;8.13;;;4.13;;
43070;SDS011;36278;47.952;21.714;2023-05-07T12:23:10;5.25;;;3.97;;
43070;SDS011;36278;47.952;21.714;2023-05-07T12:25:40;5.70;;;4.60;;
43070;SDS011;36278;47.952;21.714;2023-05-07T12:28:13;5.63;;;5.00;;
43070;SDS011;36278;47.952;21.714;2023-05-07T12:30:41;4.80;;;4.30;;
43070;SDS011;36278;47.952;21.714;2023-05-07T12:33:07;5.90;;;3.95;;
43070;SDS011;36278;47.952;21.714;2023-05-07T12:35:37;6.50;;;4.35;;
43070;SDS011;36278;47.952;21.714;2023-05-07T12:38:08;5.45;;;4.32;;
43070;SDS011;36278;47.952;21.714;2023-05-07T12:45:40;5.50;;;3.90;;
43070;SDS011;36278;47.952;21.714;2023-05-07T12:48:06;5.22;;;4.00;;
43070;SDS011;36278;47.952;21.714;2023-05-07T12:50:35;8.40;;;4.60;;
43070;SDS011;36278;47.952;21.714;2023-05-07T12:53:00;7.00;;;4.95;;
43070;SDS011;36278;47.952;21.714;2023-05-07T12:55:31;11.13;;;5.40;;
43070;SDS011;36278;47.952;21.714;2023-05-07T12:57:57;6.50;;;5.18;;
43070;SDS011;36278;47.952;21.714;2023-05-07T13:00:33;5.93;;;5.30;;
43070;SDS011;36278;47.952;21.714;2023-05-07T13:03:02;5.90;;;5.30;;
43070;SDS011;36278;47.952;21.714;2023-05-07T13:05:28;5.35;;;4.70;;
43070;SDS011;36278;47.952;21.714;2023-05-07T13:07:54;7.07;;;5.20;;
43070;SDS011;36278;47.952;21.714;2023-05-07T13:10:23;8.05;;;5.05;;
43070;SDS011;36278;47.952;21.714;2023-05-07T13:12:49;9.38;;;5.00;;
43070;SDS011;36278;47.952;21.714;2023-05-07T13:15:16;5.75;;;5.15;;
43070;SDS011;36278;47.952;21.714;2023-05-07T13:17:41;6.00;;;5.20;;
43070;SDS011;36278;47.952;21.714;2023-05-07T13:20:08;5.88;;;5.38;;
43070;SDS011;36278;47.952;21.714;2023-05-07T13:22:35;6.00;;;5.40;;
43070;SDS011;36278;47.952;21.714;2023-05-07T13:25:00;6.75;;;5.78;;
43070;SDS011;36278;47.952;21.714;2023-05-07T13:27:26;8.20;;;5.60;;
43070;SDS011;36278;47.952;21.714;2023-05-07T13:29:51;7.53;;;5.30;;
43070;SDS011;36278;47.952;21.714;2023-05-07T13:32:17;6.35;;;5.28;;
43070;SDS011;36278;47.952;21.714;2023-05-07T13:34:43;7.78;;;5.68;;
43070;SDS011;36278;47.952;21.714;2023-05-07T13:37:08;8.07;;;5.50;;
43070;SDS011;36278;47.952;21.714;2023-05-07T13:39:34;16.23;;;5.88;;
43070;SDS011;36278;47.952;21.714;2023-05-07T13:41:59;7.43;;;5.10;;
43070;SDS011;36278;47.952;21.714;2023-05-07T13:44:26;7.60;;;4.47;;
43070;SDS011;36278;47.952;21.714;2023-05-07T13:46:51;9.35;;;4.93;;
43070;SDS011;36278;47.952;21.714;2023-05-07T13:49:17;6.35;;;4.20;;
43070;SDS011;36278;47.952;21.714;2023-05-07T13:51:42;6.10;;;4.30;;
43070;SDS011;36278;47.952;21.714;2023-05-07T13:54:08;7.28;;;4.40;;
43070;SDS011;36278;47.952;21.714;2023-05-07T13:56:33;6.65;;;4.30;;
43070;SDS011;36278;47.952;21.714;2023-05-07T13:58:59;9.50;;;3.80;;
43070;SDS011;36278;47.952;21.714;2023-05-07T14:01:24;8.45;;;3.78;;
43070;SDS011;36278;47.952;21.714;2023-05-07T14:03:50;7.93;;;3.75;;
43070;SDS011;36278;47.952;21.714;2023-05-07T14:06:16;4.82;;;3.40;;
43070;SDS011;36278;47.952;21.714;2023-05-07T14:08:41;7.32;;;3.20;;
43070;SDS011;36278;47.952;21.714;2023-05-07T14:11:07;5.13;;;2.75;;
43070;SDS011;36278;47.952;21.714;2023-05-07T14:13:32;4.53;;;2.50;;
43070;SDS011;36278;47.952;21.714;2023-05-07T14:15:59;6.38;;;2.58;;
43070;SDS011;36278;47.952;21.714;2023-05-07T14:18:25;4.22;;;2.50;;
43070;SDS011;36278;47.952;21.714;2023-05-07T14:20:51;3.55;;;2.63;;
43070;SDS011;36278;47.952;21.714;2023-05-07T14:23:16;5.15;;;2.67;;
43070;SDS011;36278;47.952;21.714;2023-05-07T14:25:47;9.20;;;2.65;;
43070;SDS011;36278;47.952;21.714;2023-05-07T14:28:12;3.53;;;2.50;;
43070;SDS011;36278;47.952;21.714;2023-05-07T14:30:38;3.50;;;2.78;;
43070;SDS011;36278;47.952;21.714;2023-05-07T14:33:03;6.37;;;2.80;;
43070;SDS011;36278;47.952;21.714;2023-05-07T14:35:29;5.87;;;2.60;;
43070;SDS011;36278;47.952;21.714;2023-05-07T14:37:54;4.93;;;2.80;;
43070;SDS011;36278;47.952;21.714;2023-05-07T14:40:20;3.80;;;2.60;;
43070;SDS011;36278;47.952;21.714;2023-05-07T14:42:46;5.00;;;2.70;;